AQQ10 IFIS: Internet Flight Information System
logo dgac
Miércoles 19 de Junio del 2024
Buscar por aerodromo o helipuerto
Ingrese nombre de aeródromo, localidad o designador OACI:
METAR del 19-06-2024 a las 08:00 UTC
Para mayor información visite www.meteochile.gob.cl
METAR SCBA 190800Z AUTO 10003KT 4000 -SN OVC018/// M04/M05 Q1013
Viento: dirección 100 grados, velocidad 3 nudos
Visibilidad: 4000 metros
Débil Nieve
Nubes: Cubierto a 1800 pies sobre el nivel del aeródromo, Tipo de nubes no disponible
Temperatura: -4 °C
Rocío: -5 °C
Humedad_relativa: 93%
Presión: 1013 hPa
SPECI del 19-06-2024 a las 07:22 UTC
Para mayor información visite www.meteochile.gob.cl
SPECI SCBA 190722Z AUTO 00000KT 3600 -SN OVC016/// M04/M05 Q1013
Visibilidad: 3600 metros
Débil Nieve
Nubes: Cubierto a 1600 pies sobre el nivel del aeródromo, Tipo de nubes no disponible
Temperatura: -4 °C
Rocío: -5 °C
Humedad_relativa: 93%
Presión: 1013 hPa
SPECI del 19-06-2024 a las 06:51 UTC
Para mayor información visite www.meteochile.gob.cl
SPECI SCBA 190651Z AUTO 10002KT 4400 -SN VV012 M04/M05 Q1013
Viento: dirección 100 grados, velocidad 2 nudos
Visibilidad: 4400 metros
Débil Nieve
Visib_vertical: Cielo oscurecido, : 1200 pies de visibilidad vertical
Temperatura: -4 °C
Rocío: -5 °C
Humedad_relativa: 93%
Presión: 1013 hPa
SPECI del 19-06-2024 a las 06:50 UTC
Para mayor información visite www.meteochile.gob.cl
SPECI SCBA 190650Z AUTO 10002KT 5000 -SN VV012 M04/M05 Q1013
Viento: dirección 100 grados, velocidad 2 nudos
Visibilidad: 5000 metros
Débil Nieve
Visib_vertical: Cielo oscurecido, : 1200 pies de visibilidad vertical
Temperatura: -4 °C
Rocío: -5 °C
Humedad_relativa: 93%
Presión: 1013 hPa
SPECI del 19-06-2024 a las 06:41 UTC
Para mayor información visite www.meteochile.gob.cl
SPECI SCBA 190641Z AUTO 10002KT 4500 -SN OVC020/// M04/M05 Q1013
Viento: dirección 100 grados, velocidad 2 nudos
Visibilidad: 4500 metros
Débil Nieve
Nubes: Cubierto a 2000 pies sobre el nivel del aeródromo, Tipo de nubes no disponible
Temperatura: -4 °C
Rocío: -5 °C
Humedad_relativa: 93%
Presión: 1013 hPa
SPECI del 19-06-2024 a las 06:35 UTC
Para mayor información visite www.meteochile.gob.cl
SPECI SCBA 190635Z AUTO 00000KT 5000 -SN OVC022/// M04/M05 Q1013
Visibilidad: 5000 metros
Débil Nieve
Nubes: Cubierto a 2200 pies sobre el nivel del aeródromo, Tipo de nubes no disponible
Temperatura: -4 °C
Rocío: -5 °C
Humedad_relativa: 93%
Presión: 1013 hPa
METAR del 19-06-2024 a las 06:00 UTC
Para mayor información visite www.meteochile.gob.cl
METAR SCBA 190600Z AUTO 10002KT 4900 -SN OVC020/// M04/M05 Q1012
Viento: dirección 100 grados, velocidad 2 nudos
Visibilidad: 4900 metros
Débil Nieve
Nubes: Cubierto a 2000 pies sobre el nivel del aeródromo, Tipo de nubes no disponible
Temperatura: -4 °C
Rocío: -5 °C
Humedad_relativa: 93%
Presión: 1012 hPa
SPECI del 19-06-2024 a las 05:58 UTC
Para mayor información visite www.meteochile.gob.cl
SPECI SCBA 190558Z AUTO 10002KT 4900 -SN OVC020/// M04/M05 Q1012
Viento: dirección 100 grados, velocidad 2 nudos
Visibilidad: 4900 metros
Débil Nieve
Nubes: Cubierto a 2000 pies sobre el nivel del aeródromo, Tipo de nubes no disponible
Temperatura: -4 °C
Rocío: -5 °C
Humedad_relativa: 93%
Presión: 1012 hPa
SPECI del 19-06-2024 a las 05:58 UTC
Para mayor información visite www.meteochile.gob.cl
SPECI SCBA 190558Z AUTO 10002KT 4900 -SN OVC020/// M04/M05 Q1012
Viento: dirección 100 grados, velocidad 2 nudos
Visibilidad: 4900 metros
Débil Nieve
Nubes: Cubierto a 2000 pies sobre el nivel del aeródromo, Tipo de nubes no disponible
Temperatura: -4 °C
Rocío: -5 °C
Humedad_relativa: 93%
Presión: 1012 hPa
SPECI del 19-06-2024 a las 05:56 UTC
Para mayor información visite www.meteochile.gob.cl
SPECI SCBA 190556Z AUTO 10002KT 5000 -SN OVC022/// M04/M05 Q1012
Viento: dirección 100 grados, velocidad 2 nudos
Visibilidad: 5000 metros
Débil Nieve
Nubes: Cubierto a 2200 pies sobre el nivel del aeródromo, Tipo de nubes no disponible
Temperatura: -4 °C
Rocío: -5 °C
Humedad_relativa: 93%
Presión: 1012 hPa